Time;durP1;ratioP1;P1;durP2;ratioP2;P2;SDS_P1;SDS_P2;PMS_P1;PMS_P2;Temp;Humidity;BMP_temperature;BMP_pressure;BME280_temperature;BME280_humidity;BME280_pressure;Samples;Min_cycle;Max_cycle;Signal;HPM_P1;HPM_P2
2023/03/13 00:00:21;;;;;;;32.55;6.00;;;8.60;99.90;;;;;;5040485;28;20043;-78
2023/03/13 00:02:47;;;;;;;36.08;5.60;;;8.50;99.90;;;;;;5059754;28;20097;-76
2023/03/13 00:05:13;;;;;;;34.97;6.03;;;8.50;99.90;;;;;;5038710;28;20051;-78
2023/03/13 00:07:38;;;;;;;25.35;5.10;;;8.60;99.90;;;;;;5057583;28;20083;-77
2023/03/13 00:10:09;;;;;;;40.45;5.15;;;8.50;99.90;;;;;;5058374;28;20087;-77
2023/03/13 00:12:34;;;;;;;33.08;5.80;;;8.50;99.90;;;;;;5046513;28;20063;-77
2023/03/13 00:15:00;;;;;;;28.08;4.97;;;8.50;99.90;;;;;;5061525;28;20040;-77
2023/03/13 00:17:26;;;;;;;28.90;5.55;;;8.50;99.90;;;;;;5063175;28;20303;-77
2023/03/13 00:19:52;;;;;;;41.70;6.15;;;8.50;99.90;;;;;;5063043;28;20037;-77
2023/03/13 00:22:17;;;;;;;33.03;5.45;;;8.50;99.90;;;;;;5063631;28;20032;-79
2023/03/13 00:24:45;;;;;;;40.10;6.22;;;8.50;99.90;;;;;;5062825;28;20573;-78
2023/03/13 00:27:10;;;;;;;37.03;6.20;;;8.50;99.90;;;;;;5062345;28;20041;-77
2023/03/13 00:29:39;;;;;;;27.45;5.15;;;8.50;99.90;;;;;;5061220;28;20459;-77
2023/03/13 00:32:05;;;;;;;32.97;6.00;;;8.50;99.90;;;;;;5045066;28;20075;-77
2023/03/13 00:34:30;;;;;;;36.22;5.68;;;8.50;99.90;;;;;;5045736;28;20174;-78
2023/03/13 00:36:56;;;;;;;40.70;6.38;;;8.40;99.90;;;;;;5060536;28;20033;-78
2023/03/13 00:39:22;;;;;;;29.58;5.97;;;8.50;99.90;;;;;;5044537;28;20044;-79
2023/03/13 00:41:48;;;;;;;42.40;6.55;;;8.40;99.90;;;;;;5049238;28;20610;-78
2023/03/13 00:44:14;;;;;;;35.50;6.40;;;8.40;99.90;;;;;;5061280;28;20040;-77
2023/03/13 00:46:40;;;;;;;41.63;6.55;;;8.40;99.90;;;;;;5059335;28;20106;-75
2023/03/13 00:49:05;;;;;;;37.50;6.60;;;8.40;99.90;;;;;;5062058;28;20120;-78
2023/03/13 00:51:31;;;;;;;33.63;6.32;;;8.40;99.90;;;;;;5045009;28;20772;-75
2023/03/13 00:54:00;;;;;;;33.72;5.80;;;8.40;99.90;;;;;;5060540;28;20474;-77
2023/03/13 00:56:27;;;;;;;27.85;5.88;;;8.40;99.90;;;;;;5061843;28;20087;-78
2023/03/13 00:58:53;;;;;;;30.20;6.28;;;8.40;99.90;;;;;;5063167;28;20741;-78
2023/03/13 01:01:25;;;;;;;35.13;5.70;;;8.40;99.90;;;;;;5045428;28;20037;-78
2023/03/13 01:03:53;;;;;;;28.98;6.07;;;8.40;99.90;;;;;;5065298;28;20036;-79
2023/03/13 01:06:22;;;;;;;39.13;5.85;;;8.40;99.90;;;;;;5057712;28;20059;-79
2023/03/13 01:08:48;;;;;;;34.15;6.72;;;8.30;99.90;;;;;;5059475;28;20047;-78
2023/03/13 01:11:20;;;;;;;39.22;6.43;;;8.40;99.90;;;;;;5060576;28;20074;-78
2023/03/13 01:13:46;;;;;;;26.25;5.30;;;8.40;99.90;;;;;;5094598;28;20059;-80
2023/03/13 01:16:18;;;;;;;34.22;6.22;;;8.50;99.90;;;;;;5060242;28;20749;-78
2023/03/13 01:18:46;;;;;;;46.47;7.15;;;8.50;99.90;;;;;;5058311;28;20131;-78
2023/03/13 01:21:14;;;;;;;43.80;6.93;;;8.50;99.90;;;;;;5059944;28;20048;-78
2023/03/13 01:23:39;;;;;;;32.30;5.72;;;8.50;99.90;;;;;;5062528;28;20182;-78
2023/03/13 01:26:10;;;;;;;28.60;5.75;;;8.50;99.90;;;;;;5045804;28;20848;-78
2023/03/13 01:28:36;;;;;;;31.38;6.22;;;8.50;99.90;;;;;;5062105;28;20051;-76
2023/03/13 01:31:17;;;;;;;26.63;5.20;;;8.50;99.90;;;;;;5060520;28;20127;-79
2023/03/13 01:33:44;;;;;;;29.80;5.60;;;8.50;99.90;;;;;;5045447;28;20105;-77
2023/03/13 01:36:10;;;;;;;31.40;6.13;;;8.50;99.90;;;;;;5059356;28;20141;-78
2023/03/13 01:38:37;;;;;;;31.83;5.47;;;8.50;99.90;;;;;;5045856;28;20135;-77
2023/03/13 01:41:04;;;;;;;31.55;6.03;;;8.50;99.90;;;;;;5060821;28;21356;-79
2023/03/13 01:43:33;;;;;;;35.08;6.95;;;8.60;99.90;;;;;;5058185;28;20415;-77
2023/03/13 01:46:04;;;;;;;24.08;6.13;;;8.60;99.90;;;;;;5057107;28;20622;-79
2023/03/13 01:49:02;;;;;;;33.15;6.07;;;8.60;99.90;;;;;;5057990;28;20041;-79
2023/03/13 01:51:39;;;;;;;37.33;6.10;;;8.60;99.90;;;;;;5084453;28;20058;-79
2023/03/13 01:54:17;;;;;;;32.13;5.53;;;8.60;99.90;;;;;;5060446;28;20044;-79
2023/03/13 01:56:52;;;;;;;32.65;5.75;;;8.60;99.90;;;;;;5054983;28;20045;-77
2023/03/13 01:59:22;;;;;;;30.17;6.13;;;8.60;99.90;;;;;;5073130;28;20596;-76
2023/03/13 02:01:49;;;;;;;30.27;5.00;;;8.60;99.90;;;;;;5061146;28;20086;-79
2023/03/13 02:04:19;;;;;;;32.92;6.07;;;8.80;99.90;;;;;;5058945;28;20080;-77
2023/03/13 02:06:48;;;;;;;28.75;5.30;;;8.60;99.90;;;;;;5043363;28;20033;-77
2023/03/13 02:09:20;;;;;;;29.25;5.65;;;8.70;99.90;;;;;;5039255;28;20624;-77
2023/03/13 02:11:57;;;;;;;26.80;5.40;;;8.60;99.90;;;;;;5058403;28;20045;-76
2023/03/13 02:14:27;;;;;;;30.77;5.38;;;8.70;99.90;;;;;;5061782;28;20382;-76
2023/03/13 02:16:53;;;;;;;24.60;4.80;;;8.60;99.90;;;;;;5059052;28;20060;-78
2023/03/13 02:19:32;;;;;;;27.38;5.00;;;8.60;99.90;;;;;;5057754;28;20710;-77
2023/03/13 02:22:35;;;;;;;26.80;5.70;;;8.60;99.90;;;;;;5041047;28;20053;-78
2023/03/13 02:25:09;;;;;;;28.15;5.55;;;8.60;99.90;;;;;;5055895;28;20447;-78
2023/03/13 02:27:34;;;;;;;26.17;4.95;;;8.60;99.90;;;;;;5055946;28;20102;-78
2023/03/13 02:30:01;;;;;;;27.02;4.78;;;8.60;99.90;;;;;;5060014;28;20517;-79
2023/03/13 02:32:29;;;;;;;23.20;5.13;;;8.80;99.90;;;;;;5054973;28;20072;-77
2023/03/13 02:34:58;;;;;;;33.88;5.57;;;8.60;99.90;;;;;;5044139;28;20040;-78
2023/03/13 02:37:26;;;;;;;29.23;5.05;;;8.70;99.90;;;;;;5058061;28;20261;-79
2023/03/13 02:39:53;;;;;;;24.20;5.60;;;8.80;99.90;;;;;;5057559;28;20044;-77
2023/03/13 02:42:21;;;;;;;29.55;5.65;;;8.70;99.90;;;;;;5056012;28;20047;-78
2023/03/13 02:44:47;;;;;;;23.08;4.80;;;8.70;99.90;;;;;;5057335;28;20043;-78
2023/03/13 02:47:18;;;;;;;28.20;5.15;;;8.60;99.90;;;;;;5058098;28;20696;-78
2023/03/13 02:49:44;;;;;;;27.10;5.07;;;8.60;99.90;;;;;;5055485;28;20040;-75
2023/03/13 02:52:18;;;;;;;24.27;4.78;;;8.70;99.90;;;;;;5059857;28;20117;-77
2023/03/13 02:54:46;;;;;;;16.95;4.25;;;8.70;99.90;;;;;;5085213;28;20492;-79
2023/03/13 02:57:12;;;;;;;17.13;4.55;;;8.70;99.90;;;;;;5058514;28;20040;-80
2023/03/13 02:59:38;;;;;;;17.30;4.72;;;8.70;99.90;;;;;;5057839;28;20056;-79
2023/03/13 03:02:04;;;;;;;14.88;4.43;;;8.70;99.90;;;;;;5060372;28;20047;-79
2023/03/13 03:04:30;;;;;;;14.75;4.30;;;8.70;99.90;;;;;;5054290;28;20143;-77
2023/03/13 03:06:55;;;;;;;17.95;4.97;;;8.70;99.90;;;;;;5055897;28;20036;-78
2023/03/13 03:09:22;;;;;;;17.27;4.78;;;8.70;99.90;;;;;;5042033;28;20760;-77
2023/03/13 03:11:48;;;;;;;14.25;4.85;;;8.80;99.90;;;;;;5057856;28;20048;-76
2023/03/13 03:14:15;;;;;;;12.90;3.63;;;8.80;99.90;;;;;;5055891;28;20053;-76
2023/03/13 03:16:41;;;;;;;11.00;3.75;;;8.80;99.90;;;;;;5043274;28;20417;-77
2023/03/13 03:19:08;;;;;;;11.60;3.50;;;8.80;99.90;;;;;;5057621;28;20494;-78
2023/03/13 03:21:34;;;;;;;15.52;4.28;;;8.90;99.90;;;;;;5058525;28;20144;-77
2023/03/13 03:24:00;;;;;;;10.93;3.95;;;8.80;99.90;;;;;;5058745;28;20040;-78
2023/03/13 03:26:26;;;;;;;14.43;3.65;;;8.80;99.90;;;;;;5056449;28;20114;-78
2023/03/13 03:28:51;;;;;;;16.60;3.75;;;8.90;99.90;;;;;;5057286;28;20763;-77
2023/03/13 03:31:17;;;;;;;9.80;3.70;;;8.90;99.90;;;;;;5057966;28;20047;-77
2023/03/13 03:33:44;;;;;;;10.55;3.67;;;8.90;99.90;;;;;;5056120;28;20040;-78
2023/03/13 03:36:19;;;;;;;13.43;3.70;;;8.90;99.90;;;;;;5060561;28;20040;-78
2023/03/13 03:38:45;;;;;;;10.95;3.45;;;8.90;99.90;;;;;;5057714;28;20115;-76
2023/03/13 03:41:15;;;;;;;10.25;3.65;;;9.30;99.90;;;;;;5041892;28;20043;-78
2023/03/13 03:43:41;;;;;;;10.73;3.33;;;9.00;99.90;;;;;;5057340;28;20078;-78
2023/03/13 03:46:08;;;;;;;8.50;3.50;;;9.00;99.90;;;;;;5061157;28;21520;-79
2023/03/13 03:48:34;;;;;;;9.73;3.63;;;9.40;99.90;;;;;;5060236;28;20123;-79
2023/03/13 03:50:59;;;;;;;8.98;3.60;;;9.00;99.90;;;;;;5058236;28;20094;-77
2023/03/13 03:53:27;;;;;;;8.88;3.38;;;9.10;99.90;;;;;;5044649;28;20044;-78
2023/03/13 03:55:53;;;;;;;9.30;3.50;;;9.10;99.90;;;;;;5061765;28;20044;-78
2023/03/13 03:58:18;;;;;;;7.10;3.45;;;9.10;99.90;;;;;;5062318;28;20447;-79
2023/03/13 04:00:46;;;;;;;9.00;3.47;;;9.10;99.90;;;;;;5061147;28;20056;-78
2023/03/13 04:03:12;;;;;;;10.77;3.45;;;9.20;99.90;;;;;;5062904;28;20076;-77
2023/03/13 04:05:38;;;;;;;7.47;3.45;;;9.20;99.90;;;;;;5062664;28;20081;-79
2023/03/13 04:08:04;;;;;;;7.13;3.30;;;9.20;99.90;;;;;;5058584;28;20044;-78
2023/03/13 04:10:30;;;;;;;8.20;3.65;;;9.20;99.90;;;;;;5061890;28;20460;-81
2023/03/13 04:12:56;;;;;;;7.30;3.00;;;9.20;99.90;;;;;;5089271;28;20053;-79
2023/03/13 04:15:22;;;;;;;6.78;3.03;;;9.30;99.90;;;;;;5061825;28;20098;-80
2023/03/13 04:17:48;;;;;;;6.60;2.97;;;9.30;99.90;;;;;;5044004;28;20097;-80
2023/03/13 04:20:14;;;;;;;7.30;4.10;;;9.40;99.90;;;;;;5063771;28;20045;-78
2023/03/13 04:22:41;;;;;;;8.32;4.43;;;9.40;99.90;;;;;;5062559;28;20072;-80
2023/03/13 04:25:10;;;;;;;9.85;5.55;;;9.50;99.90;;;;;;5061575;28;20041;-79
2023/03/13 04:27:36;;;;;;;11.35;5.65;;;9.50;99.90;;;;;;5060041;28;20056;-80
2023/03/13 04:30:03;;;;;;;10.93;5.90;;;9.50;99.90;;;;;;5060502;28;20047;-78
2023/03/13 04:32:29;;;;;;;15.55;7.18;;;9.60;99.90;;;;;;5089544;28;20077;-80
2023/03/13 04:34:55;;;;;;;13.55;6.93;;;9.70;99.90;;;;;;5060097;28;20533;-79
2023/03/13 04:37:20;;;;;;;12.88;7.60;;;9.70;99.90;;;;;;5063124;28;20041;-80
2023/03/13 04:39:46;;;;;;;17.55;9.00;;;9.70;99.90;;;;;;5060258;28;20040;-79
2023/03/13 04:42:12;;;;;;;13.85;8.07;;;9.80;99.90;;;;;;5062774;28;20036;-77
2023/03/13 04:44:38;;;;;;;14.40;9.00;;;9.80;99.90;;;;;;5064955;28;20123;-78
2023/03/13 04:47:04;;;;;;;17.52;8.68;;;9.90;99.90;;;;;;5062283;28;20060;-80
2023/03/13 04:49:30;;;;;;;17.27;9.10;;;9.90;99.90;;;;;;5040038;28;20048;-78
2023/03/13 04:51:56;;;;;;;22.70;10.10;;;10.00;99.90;;;;;;5060411;28;20040;-79
2023/03/13 04:54:21;;;;;;;17.30;10.02;;;10.10;99.90;;;;;;5060611;28;20055;-80
2023/03/13 04:56:47;;;;;;;18.85;9.75;;;10.10;99.90;;;;;;5059897;28;20040;-82
2023/03/13 04:59:14;;;;;;;16.83;8.88;;;10.20;99.90;;;;;;5061519;28;20041;-82
2023/03/13 05:01:41;;;;;;;16.83;7.75;;;10.20;99.90;;;;;;5061725;28;20044;-79
2023/03/13 05:04:07;;;;;;;16.00;7.82;;;10.30;99.90;;;;;;5061678;28;20044;-77
2023/03/13 05:06:33;;;;;;;18.90;8.35;;;10.30;99.90;;;;;;5058633;28;20048;-79
2023/03/13 05:08:59;;;;;;;18.50;7.95;;;10.30;99.90;;;;;;5040465;28;20052;-77
2023/03/13 05:11:25;;;;;;;21.02;8.45;;;10.30;99.90;;;;;;5060749;28;20075;-80
2023/03/13 05:13:51;;;;;;;21.40;8.02;;;10.40;99.90;;;;;;5059373;28;20382;-82
2023/03/13 05:16:17;;;;;;;29.50;8.90;;;10.40;99.90;;;;;;5061080;28;20199;-81
2023/03/13 05:18:42;;;;;;;20.75;7.85;;;10.40;99.90;;;;;;5057380;28;20051;-80
2023/03/13 05:21:09;;;;;;;18.92;7.32;;;10.50;99.90;;;;;;5062162;28;20032;-81
2023/03/13 05:23:34;;;;;;;22.30;7.45;;;10.50;99.90;;;;;;5088429;28;20098;-78
2023/03/13 05:26:00;;;;;;;21.25;7.28;;;10.50;99.90;;;;;;5061377;28;20036;-78
2023/03/13 05:28:26;;;;;;;16.40;6.85;;;10.60;99.90;;;;;;5058749;28;20048;-80
2023/03/13 05:30:52;;;;;;;18.20;5.97;;;10.50;99.90;;;;;;5058272;28;20068;-80
2023/03/13 05:33:20;;;;;;;17.45;5.35;;;10.60;99.90;;;;;;5043183;28;20043;-81
2023/03/13 05:35:46;;;;;;;21.10;6.35;;;10.60;99.90;;;;;;5060172;28;20036;-81
2023/03/13 05:38:13;;;;;;;18.58;5.82;;;10.60;99.90;;;;;;5059099;28;20044;-78
2023/03/13 05:40:39;;;;;;;20.20;5.75;;;10.60;99.90;;;;;;5059623;28;20044;-80
2023/03/13 05:43:05;;;;;;;16.27;5.18;;;10.70;99.90;;;;;;5061089;28;20067;-79
2023/03/13 05:45:31;;;;;;;15.38;5.40;;;10.70;99.90;;;;;;5060971;28;20086;-80
2023/03/13 05:47:59;;;;;;;15.27;5.88;;;10.70;99.90;;;;;;5058155;28;20040;-81
2023/03/13 05:50:26;;;;;;;18.98;5.57;;;10.70;99.90;;;;;;5057893;28;20044;-80
2023/03/13 05:52:52;;;;;;;15.48;5.40;;;10.70;99.90;;;;;;5057860;28;20033;-77
2023/03/13 05:55:18;;;;;;;20.70;5.30;;;10.70;99.90;;;;;;5060582;28;20039;-80
2023/03/13 05:57:45;;;;;;;18.35;5.53;;;10.70;99.90;;;;;;5058462;28;20493;-82
2023/03/13 06:00:12;;;;;;;13.48;5.00;;;10.80;99.90;;;;;;5056515;28;20578;-78
2023/03/13 06:02:38;;;;;;;26.10;5.30;;;10.80;99.90;;;;;;5063178;28;20044;-81
2023/03/13 06:05:04;;;;;;;19.27;5.30;;;10.70;99.90;;;;;;5064342;28;20117;-81
2023/03/13 06:07:30;;;;;;;27.23;5.97;;;10.80;99.90;;;;;;5061585;28;20656;-82
2023/03/13 06:09:55;;;;;;;20.52;5.07;;;10.80;99.90;;;;;;5061292;28;20117;-82
2023/03/13 06:12:21;;;;;;;20.23;5.20;;;10.80;99.90;;;;;;5062821;28;20447;-83
2023/03/13 06:14:47;;;;;;;23.27;5.70;;;10.80;99.90;;;;;;5059869;28;20457;-79
2023/03/13 06:17:13;;;;;;;20.05;5.38;;;10.80;99.90;;;;;;5061520;28;20033;-82
2023/03/13 06:19:38;;;;;;;18.60;5.30;;;10.80;99.90;;;;;;5055424;28;20417;-83
2023/03/13 06:22:04;;;;;;;17.80;5.07;;;10.80;99.90;;;;;;5054026;28;20120;-83
2023/03/13 06:24:30;;;;;;;18.90;5.43;;;10.80;99.90;;;;;;5060332;28;20736;-81
2023/03/13 06:26:56;;;;;;;15.63;5.10;;;10.70;99.90;;;;;;5060780;28;20044;-81
2023/03/13 06:29:23;;;;;;;21.02;5.20;;;10.70;99.90;;;;;;5053827;28;20107;-83
2023/03/13 06:31:50;;;;;;;21.48;5.15;;;10.70;99.90;;;;;;5037308;28;20041;-81
2023/03/13 06:34:15;;;;;;;14.75;4.53;;;10.70;99.90;;;;;;5032965;28;20070;-79
2023/03/13 06:36:41;;;;;;;19.25;5.53;;;10.70;99.90;;;;;;5046851;28;20045;-78
2023/03/13 06:39:07;;;;;;;12.82;4.55;;;10.70;99.90;;;;;;5030963;28;20033;-78
2023/03/13 06:41:33;;;;;;;23.17;5.63;;;10.80;99.90;;;;;;5041787;28;20040;-80
2023/03/13 06:43:59;;;;;;;23.17;5.43;;;10.80;99.90;;;;;;5031428;28;20102;-79
2023/03/13 06:46:25;;;;;;;22.83;5.53;;;10.80;99.90;;;;;;5056738;28;20036;-79
2023/03/13 06:48:51;;;;;;;25.13;6.25;;;10.80;99.90;;;;;;5045607;28;20099;-79
2023/03/13 06:51:19;;;;;;;17.80;5.95;;;10.90;99.90;;;;;;5051102;28;20056;-80
2023/03/13 06:53:46;;;;;;;16.42;5.43;;;11.00;99.90;;;;;;5050454;28;20411;-80
2023/03/13 06:56:12;;;;;;;15.32;5.10;;;10.90;99.90;;;;;;5053654;28;20538;-82
2023/03/13 06:58:38;;;;;;;17.58;5.47;;;10.90;99.90;;;;;;5081516;28;20107;-78
2023/03/13 07:01:11;;;;;;;14.27;4.80;;;10.90;99.90;;;;;;5053978;28;20501;-76
2023/03/13 07:03:40;;;;;;;22.48;5.38;;;10.90;99.90;;;;;;5054926;28;20041;-79
2023/03/13 07:06:09;;;;;;;17.13;4.53;;;10.90;99.90;;;;;;5057104;28;20068;-77
2023/03/13 07:08:35;;;;;;;16.70;4.82;;;11.00;99.90;;;;;;5055498;28;20060;-78
2023/03/13 07:11:07;;;;;;;14.98;5.20;;;10.80;99.90;;;;;;5053939;28;20080;-76
2023/03/13 07:13:32;;;;;;;;;;;11.00;99.90;;;;;;5034885;28;20045;-77
2023/03/13 07:16:03;;;;;;;21.30;5.00;;;11.00;99.90;;;;;;5033417;28;19929;-79
2023/03/13 07:18:30;;;;;;;19.27;4.82;;;11.10;99.90;;;;;;5059085;28;20059;-76
2023/03/13 07:20:58;;;;;;;22.05;5.63;;;11.00;99.90;;;;;;5055361;28;20087;-77
2023/03/13 07:23:25;;;;;;;19.65;4.05;;;11.10;99.90;;;;;;5053411;28;20055;-79
2023/03/13 07:26:17;;;;;;;20.08;5.60;;;11.10;99.90;;;;;;5038964;28;20041;-78
2023/03/13 07:28:43;;;;;;;18.23;4.97;;;11.10;99.90;;;;;;5055427;28;20107;-77
2023/03/13 07:31:15;;;;;;;16.05;4.63;;;11.20;99.90;;;;;;5058480;28;20735;-80
2023/03/13 07:33:42;;;;;;;19.73;4.60;;;11.20;99.90;;;;;;5055561;28;20051;-78
2023/03/13 07:36:08;;;;;;;14.70;4.63;;;11.20;99.90;;;;;;5055304;28;20044;-79
2023/03/13 07:38:34;;;;;;;15.52;4.38;;;11.20;99.90;;;;;;5056772;28;20133;-77
2023/03/13 07:41:00;;;;;;;24.13;4.55;;;11.10;99.90;;;;;;5049030;28;20040;-78
2023/03/13 07:43:26;;;;;;;18.67;4.93;;;11.10;99.90;;;;;;5048286;28;20037;-79
2023/03/13 07:45:54;;;;;;;15.52;4.28;;;11.10;99.90;;;;;;5052934;28;20082;-78
2023/03/13 07:48:22;;;;;;;13.43;3.92;;;11.10;99.90;;;;;;5054220;28;20492;-77
2023/03/13 07:50:48;;;;;;;13.80;4.15;;;11.10;99.90;;;;;;5053926;28;20413;-76
2023/03/13 07:53:19;;;;;;;18.80;3.90;;;11.10;99.90;;;;;;5054911;28;20090;-80
2023/03/13 07:55:52;;;;;;;11.93;3.72;;;11.10;99.90;;;;;;5051661;28;20041;-78
2023/03/13 07:58:18;;;;;;;13.90;3.95;;;11.10;99.90;;;;;;5053745;28;20044;-78
2023/03/13 08:00:43;;;;;;;18.75;4.50;;;11.10;99.90;;;;;;5054113;28;20037;-81
2023/03/13 08:03:09;;;;;;;17.85;4.00;;;11.10;99.90;;;;;;5055375;28;20037;-78
2023/03/13 08:05:35;;;;;;;16.08;3.60;;;11.10;99.90;;;;;;5051001;28;20129;-78
2023/03/13 08:08:01;;;;;;;13.02;3.20;;;11.10;99.90;;;;;;5056695;28;20051;-79
2023/03/13 08:10:26;;;;;;;11.18;3.80;;;11.10;99.90;;;;;;5051612;28;20614;-80
2023/03/13 08:12:52;;;;;;;12.55;3.00;;;11.10;99.90;;;;;;5056580;28;20081;-78
2023/03/13 08:15:24;;;;;;;13.02;3.03;;;11.10;99.90;;;;;;5056739;28;20667;-80
2023/03/13 08:17:50;;;;;;;13.85;3.22;;;11.10;99.90;;;;;;5055872;28;20056;-81
2023/03/13 08:20:17;;;;;;;13.05;3.60;;;11.10;99.90;;;;;;5055112;28;20047;-80
2023/03/13 08:22:49;;;;;;;11.23;3.05;;;11.20;99.90;;;;;;5036761;28;20151;-77
2023/03/13 08:25:15;;;;;;;;;;;11.20;99.90;;;;;;5033792;28;20044;-76
2023/03/13 08:27:41;;;;;;;9.57;3.60;;;11.30;99.90;;;;;;5050240;28;19986;-77
2023/03/13 08:30:08;;;;;;;10.00;2.70;;;11.30;99.90;;;;;;5045710;28;20119;-80
2023/03/13 08:32:34;;;;;;;11.45;3.00;;;11.40;99.90;;;;;;5054681;28;21440;-78
2023/03/13 08:35:00;;;;;;;13.77;3.13;;;11.50;99.90;;;;;;5048010;28;20045;-80
2023/03/13 08:37:26;;;;;;;10.75;2.72;;;11.60;99.90;;;;;;5035503;28;20318;-78
2023/03/13 08:39:55;;;;;;;11.95;2.63;;;11.70;99.90;;;;;;5056132;28;20398;-76
2023/03/13 08:42:21;;;;;;;12.68;2.75;;;11.80;99.90;;;;;;5053410;28;20044;-78
2023/03/13 08:44:47;;;;;;;11.95;2.90;;;11.90;99.90;;;;;;5048182;28;20105;-78
2023/03/13 08:47:13;;;;;;;9.25;2.20;;;12.00;99.90;;;;;;5048540;28;20553;-76
2023/03/13 08:49:39;;;;;;;12.63;2.53;;;12.10;99.90;;;;;;5052439;28;20044;-75
2023/03/13 08:52:05;;;;;;;14.60;2.45;;;12.20;99.90;;;;;;5055961;28;20401;-77
2023/03/13 08:54:32;;;;;;;12.32;2.15;;;12.30;99.90;;;;;;5040956;28;20044;-77
2023/03/13 08:56:58;;;;;;;11.63;2.00;;;12.30;99.90;;;;;;5046219;28;20048;-80
2023/03/13 08:59:25;;;;;;;6.68;1.90;;;12.30;99.90;;;;;;5065752;28;20453;-77
2023/03/13 09:01:51;;;;;;;10.55;2.08;;;12.30;99.90;;;;;;5053417;28;20736;-75
2023/03/13 09:04:17;;;;;;;9.45;2.33;;;12.40;99.90;;;;;;5059426;28;20044;-76
2023/03/13 09:06:43;;;;;;;6.78;1.80;;;12.50;99.90;;;;;;5049679;28;20110;-76
2023/03/13 09:09:11;;;;;;;8.85;1.95;;;12.50;99.90;;;;;;5050858;28;21745;-77
2023/03/13 09:11:38;;;;;;;9.50;1.77;;;12.50;99.90;;;;;;5057326;28;20056;-75
2023/03/13 09:14:04;;;;;;;12.55;2.67;;;12.50;99.90;;;;;;5039411;28;20056;-75
2023/03/13 09:16:32;;;;;;;9.15;2.17;;;12.40;99.90;;;;;;5038839;28;20044;-75
2023/03/13 09:18:58;;;;;;;12.10;2.25;;;12.30;99.90;;;;;;5055071;28;20135;-76
2023/03/13 09:21:30;;;;;;;13.38;2.45;;;12.30;99.90;;;;;;5055182;28;20093;-74
2023/03/13 09:23:56;;;;;;;12.57;2.85;;;12.30;99.90;;;;;;5057273;28;20147;-75
2023/03/13 09:26:23;;;;;;;12.07;2.28;;;12.30;99.90;;;;;;5054612;28;20105;-74
2023/03/13 09:28:49;;;;;;;12.55;2.40;;;12.30;99.90;;;;;;5055390;28;20052;-76
2023/03/13 09:31:24;;;;;;;17.00;2.67;;;12.30;99.90;;;;;;5058047;28;20460;-75
2023/03/13 09:33:50;;;;;;;10.85;2.50;;;12.20;99.90;;;;;;5053501;28;20122;-76
2023/03/13 09:36:16;;;;;;;13.75;2.80;;;12.20;99.90;;;;;;5054412;28;20131;-77
2023/03/13 09:38:43;;;;;;;17.40;3.92;;;12.10;99.90;;;;;;5057337;28;20040;-79
2023/03/13 09:42:01;;;;;;;16.75;3.50;;;12.10;99.90;;;;;;5057113;28;20076;-79
2023/03/13 09:44:49;;;;;;;15.05;2.95;;;12.10;99.90;;;;;;5032299;28;20087;-76
2023/03/13 09:47:25;;;;;;;16.70;3.22;;;12.10;99.90;;;;;;4999391;28;20129;-76
2023/03/13 09:50:26;;;;;;;19.95;4.45;;;12.10;99.90;;;;;;5043707;28;20062;-77
2023/03/13 09:53:02;;;;;;;11.65;2.72;;;12.10;99.90;;;;;;5045694;28;20058;-77
2023/03/13 09:55:31;;;;;;;17.48;3.67;;;12.20;99.90;;;;;;5040137;28;20614;-78
2023/03/13 09:58:15;;;;;;;13.43;2.50;;;12.20;99.90;;;;;;5058013;28;20045;-76
2023/03/13 10:01:03;;;;;;;10.80;2.28;;;12.20;99.90;;;;;;5054274;28;20076;-76
2023/03/13 10:03:43;;;;;;;17.85;3.45;;;12.30;99.90;;;;;;5036519;28;20106;-76
2023/03/13 10:06:19;;;;;;;17.92;3.08;;;12.30;99.90;;;;;;5056115;28;20052;-77
2023/03/13 10:08:44;;;;;;;19.90;3.47;;;12.50;99.90;;;;;;5055867;28;20128;-75
2023/03/13 10:11:27;;;;;;;14.55;3.00;;;12.60;99.90;;;;;;5057775;28;20211;-78
2023/03/13 10:14:09;;;;;;;15.18;2.83;;;12.70;99.90;;;;;;5069169;28;20048;-78
2023/03/13 10:17:04;;;;;;;21.00;3.78;;;12.80;99.90;;;;;;5057684;28;20131;-75
2023/03/13 10:19:41;;;;;;;16.20;2.88;;;12.90;99.90;;;;;;5039450;28;20037;-77
2023/03/13 10:22:20;;;;;;;18.70;3.38;;;12.90;99.90;;;;;;5056710;28;20101;-76
2023/03/13 10:24:53;;;;;;;23.92;4.05;;;13.00;99.90;;;;;;5056473;28;20041;-77
2023/03/13 10:27:19;;;;;;;29.42;5.38;;;13.00;99.90;;;;;;5068931;28;20726;-77
2023/03/13 10:29:45;;;;;;;18.67;3.55;;;13.10;99.90;;;;;;5055877;28;20129;-76
2023/03/13 10:32:16;;;;;;;24.55;3.95;;;13.20;99.90;;;;;;5056050;28;20707;-77
2023/03/13 10:35:01;;;;;;;21.65;3.85;;;13.20;99.90;;;;;;5056448;28;20841;-80
2023/03/13 10:37:41;;;;;;;18.75;4.13;;;13.30;99.90;;;;;;5036039;28;20476;-76
2023/03/13 10:40:23;;;;;;;17.50;3.28;;;13.40;99.90;;;;;;5056267;28;20049;-79
2023/03/13 10:42:52;;;;;;;23.98;3.92;;;13.40;99.90;;;;;;5057347;28;20081;-76
2023/03/13 10:45:20;;;;;;;18.00;3.22;;;13.50;99.90;;;;;;5054024;28;20045;-78
2023/03/13 10:47:54;;;;;;;20.42;3.55;;;13.40;99.90;;;;;;5069224;28;20036;-77
2023/03/13 10:50:23;;;;;;;21.20;3.20;;;13.40;99.90;;;;;;5038157;28;20068;-77
2023/03/13 10:52:49;;;;;;;21.98;4.15;;;13.40;99.90;;;;;;5050414;28;20136;-80
2023/03/13 10:55:21;;;;;;;20.45;3.80;;;13.30;99.90;;;;;;5053532;28;20417;-75
2023/03/13 10:58:00;;;;;;;23.23;4.57;;;13.30;99.90;;;;;;5064609;28;20504;-73
2023/03/13 11:00:38;;;;;;;90.10;8.63;;;13.40;99.90;;;;;;5040123;28;20051;-75
2023/03/13 11:03:32;;;;;;;20.85;3.20;;;13.40;99.90;;;;;;5056681;28;20424;-74
2023/03/13 11:06:01;;;;;;;19.55;3.38;;;13.40;99.90;;;;;;5052604;28;20071;-75
2023/03/13 11:08:33;;;;;;;20.83;3.50;;;13.40;99.90;;;;;;5058144;28;20051;-74
2023/03/13 11:11:01;;;;;;;18.40;2.80;;;13.40;99.90;;;;;;5056900;28;20106;-74
2023/03/13 11:13:34;;;;;;;20.65;3.60;;;13.40;99.90;;;;;;5056651;28;20047;-75
2023/03/13 11:16:23;;;;;;;;;;;13.40;99.90;;;;;;5058572;28;20497;-74
2023/03/13 11:19:00;;;;;;;15.45;2.85;;;13.40;99.90;;;;;;5031271;28;19981;-76
2023/03/13 11:21:52;;;;;;;16.73;3.92;;;13.40;99.90;;;;;;5056259;28;20419;-77
2023/03/13 11:24:47;;;;;;;21.85;3.17;;;13.50;99.90;;;;;;5045145;28;20076;-75
2023/03/13 11:27:48;;;;;;;12.82;2.92;;;13.40;99.90;;;;;;5056589;28;20167;-75
2023/03/13 11:30:45;;;;;;;21.33;3.90;;;13.50;99.90;;;;;;5073889;28;20086;-75
2023/03/13 11:33:21;;;;;;;18.55;2.80;;;13.60;99.90;;;;;;5057030;28;20143;-74
2023/03/13 11:36:00;;;;;;;68.90;7.05;;;13.70;99.90;;;;;;5056147;28;20511;-73
2023/03/13 11:38:39;;;;;;;15.40;2.75;;;13.70;99.90;;;;;;5055942;28;20048;-73
2023/03/13 11:41:16;;;;;;;9.75;2.38;;;13.80;99.90;;;;;;5055352;28;20044;-73
2023/03/13 11:44:12;;;;;;;14.68;2.67;;;13.80;99.90;;;;;;5039034;28;21996;-74
2023/03/13 11:47:01;;;;;;;17.50;3.28;;;13.90;99.90;;;;;;5056219;28;20048;-73
2023/03/13 11:49:48;;;;;;;12.60;2.53;;;13.90;99.90;;;;;;5054204;28;20045;-73
2023/03/13 11:52:23;;;;;;;12.90;2.38;;;13.90;99.90;;;;;;5053886;28;20067;-73
2023/03/13 11:55:07;;;;;;;21.45;3.25;;;13.80;99.90;;;;;;5036454;28;20072;-73
2023/03/13 11:57:53;;;;;;;18.08;3.25;;;13.80;99.90;;;;;;5040309;28;20061;-72
2023/03/13 12:00:32;;;;;;;13.00;2.63;;;13.80;99.90;;;;;;5058494;28;20040;-74
2023/03/13 12:03:13;;;;;;;21.23;3.17;;;13.80;99.90;;;;;;5058180;28;20048;-73
2023/03/13 12:05:54;;;;;;;18.30;2.60;;;13.90;99.90;;;;;;5057245;28;21059;-72
2023/03/13 12:08:38;;;;;;;19.50;3.20;;;13.90;99.90;;;;;;5058362;28;20041;-73
2023/03/13 12:11:51;;;;;;;27.40;3.83;;;13.90;99.90;;;;;;5072546;28;20052;-72
2023/03/13 12:14:49;;;;;;;23.65;3.10;;;13.90;99.90;;;;;;5049338;28;20048;-72
2023/03/13 12:17:33;;;;;;;17.23;3.60;;;14.00;99.90;;;;;;5052898;28;20064;-73
2023/03/13 12:20:37;;;;;;;28.23;4.50;;;14.10;99.90;;;;;;5043202;28;20033;-72
2023/03/13 12:23:32;;;;;;;18.52;3.40;;;14.10;99.90;;;;;;5038811;28;20053;-73
2023/03/13 12:26:05;;;;;;;23.20;3.47;;;14.20;99.90;;;;;;5045970;28;20055;-73
2023/03/13 12:28:59;;;;;;;26.02;5.15;;;14.30;99.90;;;;;;5042084;28;20060;-73
2023/03/13 12:31:57;;;;;;;19.50;3.50;;;14.30;99.90;;;;;;5071825;28;20053;-73
2023/03/13 12:34:36;;;;;;;23.98;3.65;;;14.30;99.90;;;;;;5043253;28;20052;-72
2023/03/13 12:37:10;;;;;;;20.80;3.35;;;14.30;99.90;;;;;;5042085;28;20045;-73
2023/03/13 12:39:50;;;;;;;20.35;3.47;;;14.30;99.90;;;;;;5058928;28;20041;-72
2023/03/13 12:42:35;;;;;;;24.23;3.60;;;14.30;99.90;;;;;;5041504;28;20048;-73
2023/03/13 12:45:01;;;;;;;21.88;3.83;;;14.40;99.90;;;;;;5059318;28;20062;-74
2023/03/13 12:47:32;;;;;;;16.10;3.67;;;14.40;99.90;;;;;;5059538;28;20306;-75
2023/03/13 12:50:39;;;;;;;20.85;3.80;;;14.40;99.90;;;;;;5058830;28;20044;-74
2023/03/13 12:53:34;;;;;;;24.20;3.80;;;14.50;99.90;;;;;;5061472;28;20055;-74
2023/03/13 12:56:18;;;;;;;17.80;3.80;;;14.50;99.90;;;;;;5059024;28;20044;-74
2023/03/13 12:58:54;;;;;;;18.40;4.00;;;14.50;99.90;;;;;;5060038;28;20044;-74
2023/03/13 13:01:23;;;;;;;19.30;3.47;;;14.50;99.90;;;;;;5060687;28;20052;-75